createdAt,value
2018-01-14T00:03:59.735Z,1.5
2018-01-14T00:08:59.513Z,1.5
2018-01-14T00:13:59.604Z,1.4
2018-01-14T00:18:59.825Z,1.5
2018-01-14T00:23:59.650Z,1.5
2018-01-14T00:28:59.565Z,1.5
2018-01-14T00:33:59.487Z,1.5
2018-01-14T00:38:59.498Z,1.4
2018-01-14T00:43:59.490Z,1.4
2018-01-14T00:48:59.667Z,1.4
2018-01-14T00:53:59.734Z,1.4
2018-01-14T00:58:59.654Z,1.4
2018-01-14T01:03:59.607Z,1.4
2018-01-14T01:08:59.759Z,1.4
2018-01-14T01:13:59.749Z,1.4
2018-01-14T01:18:59.690Z,1.4
2018-01-14T01:23:59.713Z,1.4
2018-01-14T01:28:59.505Z,1.4
2018-01-14T01:33:59.775Z,1.3
2018-01-14T01:38:59.508Z,1.3
2018-01-14T01:43:59.753Z,1.3
2018-01-14T01:48:59.642Z,1.3
2018-01-14T01:53:59.690Z,1.3
2018-01-14T01:58:59.815Z,1.3
2018-01-14T02:03:59.531Z,1.3
2018-01-14T02:08:59.779Z,1.2
2018-01-14T02:13:59.705Z,1.2
2018-01-14T02:18:59.633Z,1.2
2018-01-14T02:23:59.538Z,1.2
2018-01-14T02:28:59.700Z,1.2
2018-01-14T02:33:59.731Z,1.2
2018-01-14T02:38:59.644Z,1.2
2018-01-14T02:43:59.547Z,1.2
2018-01-14T02:48:59.709Z,1.2
2018-01-14T02:53:59.736Z,1.2
2018-01-14T02:58:59.668Z,1.2
2018-01-14T03:03:59.668Z,1.2
2018-01-14T03:08:59.737Z,1.2
2018-01-14T03:13:59.651Z,1.2
2018-01-14T03:18:59.793Z,1.1
2018-01-14T03:23:59.721Z,1.2
2018-01-14T03:28:59.892Z,1.1
2018-01-14T03:33:59.687Z,1.1
2018-01-14T03:38:59.666Z,1.1
2018-01-14T03:43:59.741Z,1.1
2018-01-14T03:48:59.776Z,1.1
2018-01-14T03:53:59.696Z,1.1
2018-01-14T03:58:59.728Z,1.1
2018-01-14T04:03:59.585Z,1.1
2018-01-14T04:08:59.683Z,1.1
2018-01-14T04:13:59.820Z,1.1
2018-01-14T04:18:59.750Z,1
2018-01-14T04:24:00.704Z,1.1
2018-01-14T04:28:59.809Z,1.1
2018-01-14T04:33:59.599Z,1.1
2018-01-14T04:38:59.761Z,1
2018-01-14T04:43:59.604Z,1.1
2018-01-14T04:48:59.630Z,1
2018-01-14T04:53:59.752Z,1.1
2018-01-14T04:58:59.884Z,1
2018-01-14T05:03:59.712Z,1
2018-01-14T05:08:59.633Z,1
2018-01-14T05:13:59.628Z,1
2018-01-14T05:18:59.809Z,0.9
2018-01-14T05:23:59.723Z,0.9
2018-01-14T05:33:59.797Z,0.9
2018-01-14T05:38:59.634Z,0.9
2018-01-14T05:43:59.749Z,0.9
2018-01-14T05:48:59.875Z,0.9
2018-01-14T05:53:59.821Z,0.9
2018-01-14T05:58:59.731Z,0.9
2018-01-14T06:03:59.656Z,0.9
2018-01-14T06:08:59.842Z,0.9
2018-01-14T06:13:59.838Z,0.8
2018-01-14T06:18:59.668Z,0.8
2018-01-14T06:23:59.781Z,0.8
2018-01-14T06:28:59.690Z,0.8
2018-01-14T06:33:59.671Z,0.8
2018-01-14T06:38:59.896Z,0.8
2018-01-14T06:43:59.711Z,0.8
2018-01-14T06:48:59.693Z,0.8
2018-01-14T06:53:59.983Z,0.8
2018-01-14T06:59:01.238Z,0.8
2018-01-14T07:04:02.493Z,0.8
2018-01-14T07:09:01.416Z,0.8
2018-01-14T07:14:01.434Z,0.8
2018-01-14T07:19:01.473Z,0.8
2018-01-14T07:24:01.380Z,0.7
2018-01-14T07:29:01.422Z,0.7
2018-01-14T07:34:01.311Z,0.7
2018-01-14T07:39:01.365Z,0.7
2018-01-14T07:44:01.345Z,0.8
2018-01-14T07:49:01.320Z,0.7
2018-01-14T07:54:01.365Z,0.8
2018-01-14T07:59:01.765Z,0.8
2018-01-14T08:04:01.427Z,0.8
2018-01-14T08:09:01.291Z,0.8
2018-01-14T08:14:01.496Z,0.8
2018-01-14T08:19:01.406Z,0.8
2018-01-14T08:24:01.444Z,0.8
2018-01-14T08:29:01.298Z,0.8
2018-01-14T08:34:01.330Z,0.8
2018-01-14T08:39:01.289Z,0.8
2018-01-14T08:44:01.431Z,0.8
2018-01-14T08:49:01.391Z,0.8
2018-01-14T08:54:01.443Z,0.8
2018-01-14T08:59:01.335Z,0.7
2018-01-14T09:04:01.438Z,0.8
2018-01-14T09:09:11.389Z,0.8
2018-01-14T09:14:01.439Z,0.8
2018-01-14T09:19:01.443Z,0.8
2018-01-14T09:24:01.433Z,0.8
2018-01-14T09:29:01.470Z,0.9
2018-01-14T09:34:01.324Z,0.9
2018-01-14T09:39:01.476Z,0.9
2018-01-14T09:44:01.330Z,0.8
2018-01-14T09:49:01.333Z,0.8
2018-01-14T09:54:01.355Z,0.9
2018-01-14T09:59:01.427Z,0.9
2018-01-14T10:04:01.355Z,0.9
2018-01-14T10:09:02.058Z,0.9
2018-01-14T10:14:01.603Z,0.9
2018-01-14T10:19:01.362Z,1
2018-01-14T10:24:01.340Z,1
2018-01-14T10:29:01.368Z,0.9
2018-01-14T10:34:01.344Z,1
2018-01-14T10:39:01.391Z,0.9
2018-01-14T10:44:01.353Z,1
2018-01-14T10:49:01.352Z,1
2018-01-14T10:54:01.394Z,1.1
2018-01-14T10:59:01.385Z,1.2
2018-01-14T11:04:01.391Z,1.2
2018-01-14T11:09:04.698Z,1.3
2018-01-14T11:14:01.395Z,1.3
2018-01-14T11:19:01.374Z,1.5
2018-01-14T11:24:01.454Z,1.5
2018-01-14T11:29:01.385Z,1.6
2018-01-14T11:34:02.546Z,1.6
2018-01-14T11:39:01.405Z,1.7
2018-01-14T11:44:01.406Z,1.7
2018-01-14T11:49:01.419Z,1.6
2018-01-14T11:54:01.712Z,1.7
2018-01-14T11:59:01.441Z,1.7
2018-01-14T12:04:01.666Z,1.6
2018-01-14T12:09:01.414Z,1.5
2018-01-14T12:14:01.449Z,1.5
2018-01-14T12:19:01.546Z,1.4
2018-01-14T12:24:01.793Z,1.4
2018-01-14T12:29:01.409Z,1.4
2018-01-14T12:34:01.481Z,1.4
2018-01-14T12:39:01.457Z,1.4
2018-01-14T12:44:01.433Z,1.4
2018-01-14T12:49:01.554Z,1.4
2018-01-14T12:54:01.422Z,1.4
2018-01-14T12:59:01.496Z,1.3
2018-01-14T13:04:01.441Z,1.3
2018-01-14T13:09:01.445Z,1.3
2018-01-14T13:14:01.444Z,1.4
2018-01-14T13:19:01.652Z,1.3
2018-01-14T13:24:01.654Z,1.3
2018-01-14T13:29:01.447Z,1.3
2018-01-14T13:34:01.496Z,1.3
2018-01-14T13:39:03.166Z,1.3
2018-01-14T13:44:01.471Z,1.3
2018-01-14T13:49:01.457Z,1.2
2018-01-14T13:54:01.643Z,1.2
2018-01-14T13:59:01.505Z,1.2
2018-01-14T14:04:01.489Z,1.2
2018-01-14T14:09:01.622Z,1.2
2018-01-14T14:14:01.567Z,1.1
2018-01-14T14:19:01.681Z,1
2018-01-14T14:24:01.490Z,1
2018-01-14T14:29:01.497Z,1
2018-01-14T14:39:01.500Z,0.9
2018-01-14T14:44:01.734Z,0.9
2018-01-14T14:52:42.774Z,0.8
2018-01-14T14:57:42.610Z,0.8
2018-01-14T15:02:42.710Z,0.8
2018-01-14T15:07:42.630Z,0.7
2018-01-14T15:12:42.628Z,0.7
2018-01-14T15:17:42.730Z,0.7
2018-01-14T15:22:42.768Z,0.6
2018-01-14T15:27:42.656Z,0.6
2018-01-14T15:32:42.903Z,0.6
2018-01-14T15:37:42.838Z,0.6
2018-01-14T15:42:46.020Z,0.5
2018-01-14T15:47:42.748Z,0.5
2018-01-14T15:52:42.631Z,0.5
2018-01-14T15:57:43.408Z,0.4
2018-01-14T16:02:42.656Z,0.4
2018-01-14T16:07:42.644Z,0.4
2018-01-14T16:12:42.693Z,0.4
2018-01-14T16:17:42.681Z,0.3
2018-01-14T16:22:42.638Z,0.3
2018-01-14T16:27:42.678Z,0.3
2018-01-14T16:32:42.723Z,0.3
2018-01-14T16:37:42.718Z,0.2
2018-01-14T16:42:42.797Z,0.2
2018-01-14T16:47:42.760Z,0.1
2018-01-14T16:52:42.697Z,0.2
2018-01-14T16:57:42.788Z,0.1
2018-01-14T17:02:42.720Z,0.1
2018-01-14T17:07:42.901Z,0.1
2018-01-14T17:12:42.747Z,0.1
2018-01-14T17:17:42.861Z,0.1
2018-01-14T17:22:42.922Z,0
2018-01-14T17:27:42.722Z,0
2018-01-14T17:32:42.677Z,0
2018-01-14T17:37:43.388Z,0
2018-01-14T17:42:42.697Z,0
2018-01-14T17:47:52.743Z,0
2018-01-14T17:52:42.760Z,0
2018-01-14T17:57:42.819Z,0
2018-01-14T18:02:52.716Z,0
2018-01-14T18:07:42.836Z,0
2018-01-14T18:12:42.894Z,0
2018-01-14T18:17:42.740Z,0
2018-01-14T18:22:42.819Z,0
2018-01-14T18:27:42.866Z,0
2018-01-14T18:32:42.913Z,0
2018-01-14T18:37:42.841Z,0
2018-01-14T18:42:42.768Z,0
2018-01-14T18:47:42.894Z,0
2018-01-14T18:52:42.911Z,0
2018-01-14T18:57:42.964Z,0
2018-01-14T19:02:42.918Z,0
2018-01-14T19:07:42.785Z,0
2018-01-14T19:12:42.794Z,0
2018-01-14T19:17:42.882Z,0
2018-01-14T19:22:42.881Z,0
2018-01-14T19:27:42.783Z,0
2018-01-14T19:32:42.978Z,0
2018-01-14T19:37:43.017Z,0
2018-01-14T19:42:42.795Z,0
2018-01-14T19:47:42.760Z,0
2018-01-14T19:52:42.796Z,0
2018-01-14T19:57:43.021Z,0
2018-01-14T20:02:43.002Z,0
2018-01-14T20:07:42.921Z,0
2018-01-14T20:12:42.845Z,0
2018-01-14T20:17:42.931Z,0
2018-01-14T20:22:43.077Z,0
2018-01-14T20:27:42.832Z,0
2018-01-14T20:32:42.970Z,0
2018-01-14T20:37:42.953Z,0
2018-01-14T20:42:43.017Z,0
2018-01-14T20:47:43.031Z,0
2018-01-14T20:52:42.846Z,-0.1
2018-01-14T20:57:42.819Z,-0.1
2018-01-14T21:02:42.822Z,-0.1
2018-01-14T21:07:42.836Z,-0.1
2018-01-14T21:12:43.608Z,-0.1
2018-01-14T21:17:42.857Z,-0.1
2018-01-14T21:22:42.900Z,-0.2
2018-01-14T21:27:43.115Z,-0.2
2018-01-14T21:32:43.038Z,-0.2
2018-01-14T21:37:42.855Z,-0.2
2018-01-14T21:42:42.849Z,-0.2
2018-01-14T21:47:42.853Z,-0.2
2018-01-14T21:52:42.889Z,-0.3
2018-01-14T21:57:42.886Z,-0.3
2018-01-14T22:02:42.954Z,-0.3
2018-01-14T22:07:42.872Z,-0.3
2018-01-14T22:12:43.006Z,-0.3
2018-01-14T22:17:42.855Z,-0.3
2018-01-14T22:22:42.945Z,-0.3
2018-01-14T22:27:43.000Z,-0.3
2018-01-14T22:32:52.997Z,-0.3
2018-01-14T22:37:43.045Z,-0.4
2018-01-14T22:42:42.956Z,-0.4
2018-01-14T22:47:43.004Z,-0.4
2018-01-14T22:52:43.168Z,-0.4
2018-01-14T22:57:42.984Z,-0.4
2018-01-14T23:02:43.025Z,-0.4
2018-01-14T23:07:43.044Z,-0.4
2018-01-14T23:12:42.958Z,-0.4
2018-01-14T23:17:42.877Z,-0.4
2018-01-14T23:22:42.888Z,-0.4
2018-01-14T23:27:43.046Z,-0.4
2018-01-14T23:32:43.061Z,-0.4
2018-01-14T23:37:42.996Z,-0.4
2018-01-14T23:42:43.026Z,-0.4
2018-01-14T23:47:43.027Z,-0.5
2018-01-14T23:52:42.981Z,-0.5
2018-01-14T23:57:43.025Z,-0.4
